Time;durP1;ratioP1;P1;durP2;ratioP2;P2;SDS_P1;SDS_P2;PMS_P1;PMS_P2;Temp;Humidity;BMP_temperature;BMP_pressure;BME280_temperature;BME280_humidity;BME280_pressure;Samples;Min_cycle;Max_cycle;Signal;HPM_P1;HPM_P2
2021/05/20 00:00:18;;;;;;;3.15;0.95;;;;;;;;;;4940051;28;20042;-85
2021/05/20 00:03:03;;;;;;;3.22;1.30;;;;;;;;;;4941345;29;20109;-87
2021/05/20 00:05:49;;;;;;;3.97;1.10;;;;;;;;;;4939788;28;20034;-86
2021/05/20 00:08:34;;;;;;;5.20;1.38;;;;;;;;;;4938849;29;20402;-86
2021/05/20 00:11:19;;;;;;;2.35;1.05;;;;;;;;;;4940212;29;20035;-86
2021/05/20 00:14:04;;;;;;;2.17;1.33;;;;;;;;;;4937223;29;20038;-87
2021/05/20 00:16:49;;;;;;;2.63;1.20;;;;;;;;;;4938266;28;20023;-87
2021/05/20 00:19:35;;;;;;;2.60;1.35;;;;;;;;;;4937061;29;20023;-85
2021/05/20 00:22:20;;;;;;;1.88;1.10;;;;;;;;;;4936810;28;20680;-84
2021/05/20 00:25:06;;;;;;;5.35;1.27;;;;;;;;;;4935060;28;20042;-85
2021/05/20 00:27:51;;;;;;;3.58;1.15;;;;;;;;;;4930093;28;20031;-85
2021/05/20 00:30:36;;;;;;;2.10;1.13;;;;;;;;;;4936908;28;20086;-85
2021/05/20 00:33:21;;;;;;;5.63;2.13;;;;;;;;;;4933940;28;20252;-85
2021/05/20 00:36:07;;;;;;;3.22;1.20;;;;;;;;;;4930612;28;20479;-85
2021/05/20 00:38:52;;;;;;;2.88;1.58;;;;;;;;;;4929034;28;20134;-85
2021/05/20 00:41:37;;;;;;;4.53;1.20;;;;;;;;;;4936059;28;20414;-86
2021/05/20 00:44:23;;;;;;;1.95;1.30;;;;;;;;;;4935878;29;20408;-85
2021/05/20 00:47:08;;;;;;;2.08;1.23;;;;;;;;;;4935650;29;20037;-85
2021/05/20 00:49:53;;;;;;;4.68;1.10;;;;;;;;;;4952372;28;20039;-85
2021/05/20 00:52:39;;;;;;;2.15;1.05;;;;;;;;;;4958947;28;20027;-86
2021/05/20 00:55:29;;;;;;;4.35;1.00;;;;;;;;;;4952513;28;20943;-85
2021/05/20 00:58:15;;;;;;;1.30;1.20;;;;;;;;;;4969010;28;20409;-86
2021/05/20 01:01:00;;;;;;;2.05;1.05;;;;;;;;;;4959842;28;20030;-86
2021/05/20 01:03:46;;;;;;;3.83;1.38;;;;;;;;;;4951963;28;20030;-86
2021/05/20 01:06:31;;;;;;;8.40;1.17;;;;;;;;;;4958433;28;20074;-86
2021/05/20 01:09:16;;;;;;;5.50;1.38;;;;;;;;;;4948964;28;20027;-86
2021/05/20 01:12:08;;;;;;;3.38;1.42;;;;;;;;;;4967913;28;20355;-87
2021/05/20 01:14:53;;;;;;;5.00;1.30;;;;;;;;;;4937445;28;20217;-86
2021/05/20 01:17:38;;;;;;;2.83;1.10;;;;;;;;;;4965047;28;20418;-87
2021/05/20 01:20:26;;;;;;;3.28;1.48;;;;;;;;;;4956289;28;20034;-87
2021/05/20 01:23:13;;;;;;;2.90;1.30;;;;;;;;;;4966882;28;20544;-87
2021/05/20 01:26:01;;;;;;;4.95;1.63;;;;;;;;;;4955969;28;20490;-86
2021/05/20 01:28:46;;;;;;;1.58;1.25;;;;;;;;;;4970286;28;20371;-85
2021/05/20 01:31:32;;;;;;;8.07;1.27;;;;;;;;;;4956364;28;20489;-86
2021/05/20 01:34:18;;;;;;;3.20;1.30;;;;;;;;;;4962438;28;20125;-88
2021/05/20 01:37:04;;;;;;;9.85;1.98;;;;;;;;;;4952435;28;20366;-85
2021/05/20 01:39:50;;;;;;;2.95;1.33;;;;;;;;;;4963418;28;20041;-86
2021/05/20 01:42:35;;;;;;;2.50;1.27;;;;;;;;;;4960037;28;20030;-87
2021/05/20 01:45:20;;;;;;;3.22;1.30;;;;;;;;;;4959832;28;20038;-87
2021/05/20 01:48:05;;;;;;;2.70;1.55;;;;;;;;;;4954943;28;20138;-86
2021/05/20 01:50:51;;;;;;;3.17;1.67;;;;;;;;;;4955125;28;20114;-85
2021/05/20 01:53:37;;;;;;;3.83;1.63;;;;;;;;;;4961162;28;20046;-85
2021/05/20 01:56:27;;;;;;;2.92;1.20;;;;;;;;;;4939286;28;20046;-85
2021/05/20 01:59:12;;;;;;;3.55;1.27;;;;;;;;;;4963681;28;20035;-83
2021/05/20 02:01:57;;;;;;;2.05;1.20;;;;;;;;;;4950200;28;20030;-83
2021/05/20 02:04:43;;;;;;;3.53;1.90;;;;;;;;;;4954463;28;20031;-84
2021/05/20 02:07:28;;;;;;;1.92;1.13;;;;;;;;;;4946579;28;20386;-84
2021/05/20 02:10:13;;;;;;;4.35;1.30;;;;;;;;;;4957728;28;20031;-84
2021/05/20 02:12:58;;;;;;;2.97;1.30;;;;;;;;;;4958184;28;20031;-84
2021/05/20 02:15:44;;;;;;;4.47;1.30;;;;;;;;;;4955535;28;20023;-84
2021/05/20 02:18:29;;;;;;;4.55;1.45;;;;;;;;;;4951872;28;20031;-84
2021/05/20 02:21:14;;;;;;;3.00;1.35;;;;;;;;;;4956246;28;20031;-84
2021/05/20 02:24:00;;;;;;;2.90;1.00;;;;;;;;;;4952249;28;20029;-83
2021/05/20 02:26:45;;;;;;;2.90;1.10;;;;;;;;;;4951220;28;20027;-84
2021/05/20 02:29:30;;;;;;;5.13;1.40;;;;;;;;;;4955965;28;20393;-85
2021/05/20 02:32:15;;;;;;;2.15;1.20;;;;;;;;;;4959591;28;20529;-85
2021/05/20 02:35:01;;;;;;;3.65;1.00;;;;;;;;;;4960495;28;20429;-85
2021/05/20 02:37:46;;;;;;;2.42;1.20;;;;;;;;;;4959597;28;20062;-85
2021/05/20 02:40:32;;;;;;;2.85;1.10;;;;;;;;;;4950070;28;20037;-85
2021/05/20 02:43:17;;;;;;;2.08;0.90;;;;;;;;;;4954934;28;20386;-85
2021/05/20 02:46:02;;;;;;;1.90;1.35;;;;;;;;;;4956975;28;20018;-84
2021/05/20 02:48:48;;;;;;;5.43;1.38;;;;;;;;;;4954632;28;20031;-85
2021/05/20 02:51:33;;;;;;;2.38;1.00;;;;;;;;;;4957522;28;20038;-85
2021/05/20 02:54:18;;;;;;;3.92;1.05;;;;;;;;;;4943895;28;20404;-85
2021/05/20 02:57:04;;;;;;;3.42;1.67;;;;;;;;;;4955746;28;20508;-84
2021/05/20 02:59:49;;;;;;;2.15;1.17;;;;;;;;;;4960177;28;20085;-85
2021/05/20 03:02:34;;;;;;;3.20;1.20;;;;;;;;;;4958725;28;20390;-86
2021/05/20 03:05:20;;;;;;;3.22;1.05;;;;;;;;;;4957323;28;20065;-86
2021/05/20 03:08:05;;;;;;;1.50;1.02;;;;;;;;;;4960651;28;20089;-84
2021/05/20 03:10:50;;;;;;;5.22;1.40;;;;;;;;;;4958503;28;20046;-83
2021/05/20 03:13:35;;;;;;;3.58;1.58;;;;;;;;;;4958681;28;20264;-83
2021/05/20 03:16:21;;;;;;;3.72;1.30;;;;;;;;;;4953980;28;20077;-86
2021/05/20 03:19:06;;;;;;;3.95;1.27;;;;;;;;;;4971364;28;20027;-86
2021/05/20 03:21:51;;;;;;;2.38;1.10;;;;;;;;;;4965516;28;20034;-85
2021/05/20 03:24:36;;;;;;;5.28;1.48;;;;;;;;;;4957922;28;20440;-84
2021/05/20 03:27:21;;;;;;;2.97;1.30;;;;;;;;;;4944421;28;20177;-84
2021/05/20 03:30:07;;;;;;;2.17;1.38;;;;;;;;;;4955041;28;20030;-85
2021/05/20 03:32:52;;;;;;;4.07;1.25;;;;;;;;;;4963614;28;20106;-84
2021/05/20 03:35:37;;;;;;;2.70;1.20;;;;;;;;;;4954714;28;20035;-84
2021/05/20 03:38:23;;;;;;;1.65;1.25;;;;;;;;;;4958990;28;20062;-86
2021/05/20 03:41:08;;;;;;;3.55;1.52;;;;;;;;;;4957311;28;20637;-86
2021/05/20 03:43:54;;;;;;;3.03;1.42;;;;;;;;;;4962900;28;20512;-86
2021/05/20 03:46:39;;;;;;;3.03;1.40;;;;;;;;;;4954416;28;20034;-86
2021/05/20 03:49:24;;;;;;;1.63;1.10;;;;;;;;;;4952527;28;20047;-85
2021/05/20 03:52:09;;;;;;;3.05;1.20;;;;;;;;;;4953604;28;20034;-86
2021/05/20 03:54:54;;;;;;;2.35;1.50;;;;;;;;;;4962078;28;20022;-86
2021/05/20 03:57:40;;;;;;;3.80;1.58;;;;;;;;;;4957315;28;20033;-85
2021/05/20 04:00:25;;;;;;;4.53;1.63;;;;;;;;;;4964352;28;20106;-84
2021/05/20 04:03:10;;;;;;;1.40;1.05;;;;;;;;;;4958458;28;20023;-85
2021/05/20 04:05:56;;;;;;;3.30;1.15;;;;;;;;;;4961440;28;20077;-85
2021/05/20 04:08:41;;;;;;;2.78;1.27;;;;;;;;;;4951541;28;20445;-85
2021/05/20 04:11:28;;;;;;;2.38;1.08;;;;;;;;;;4958910;28;20566;-85
2021/05/20 04:14:14;;;;;;;3.20;1.27;;;;;;;;;;4956067;28;20093;-86
2021/05/20 04:16:59;;;;;;;1.77;1.10;;;;;;;;;;4954978;28;20078;-86
2021/05/20 04:19:44;;;;;;;3.33;1.55;;;;;;;;;;4952137;28;20489;-86
2021/05/20 04:22:29;;;;;;;3.63;1.42;;;;;;;;;;4958601;28;20034;-86
2021/05/20 04:25:14;;;;;;;2.85;1.50;;;;;;;;;;4956273;28;20031;-86
2021/05/20 04:28:00;;;;;;;3.67;1.23;;;;;;;;;;4950507;28;20030;-87
2021/05/20 04:30:45;;;;;;;4.97;1.27;;;;;;;;;;4957168;28;20734;-87
2021/05/20 04:33:31;;;;;;;12.30;6.43;;;;;;;;;;4958228;28;20030;-86
2021/05/20 04:36:16;;;;;;;11.90;7.18;;;;;;;;;;4961735;28;20023;-86
2021/05/20 04:39:01;;;;;;;2.15;1.45;;;;;;;;;;4954738;28;20031;-85
2021/05/20 04:41:47;;;;;;;2.70;1.00;;;;;;;;;;4961198;28;20274;-86
2021/05/20 04:44:32;;;;;;;2.65;1.27;;;;;;;;;;4959351;28;20027;-85
2021/05/20 04:47:17;;;;;;;2.13;1.45;;;;;;;;;;4959934;28;20061;-86
2021/05/20 04:50:03;;;;;;;1.80;1.20;;;;;;;;;;4956593;28;20052;-86
2021/05/20 04:52:48;;;;;;;1.80;1.13;;;;;;;;;;4961143;28;20605;-87
2021/05/20 04:55:33;;;;;;;3.42;1.77;;;;;;;;;;4956324;28;20030;-86
2021/05/20 04:58:19;;;;;;;4.72;2.65;;;;;;;;;;4960049;28;20046;-87
2021/05/20 05:01:04;;;;;;;5.07;1.58;;;;;;;;;;4956250;28;20402;-86
2021/05/20 05:03:49;;;;;;;2.22;1.15;;;;;;;;;;4958685;28;20035;-86
2021/05/20 05:06:34;;;;;;;1.90;1.00;;;;;;;;;;4956602;28;20026;-86
2021/05/20 05:09:19;;;;;;;2.50;1.65;;;;;;;;;;4952168;28;20027;-86
2021/05/20 05:12:05;;;;;;;1.63;0.93;;;;;;;;;;4963893;28;20109;-86
2021/05/20 05:14:50;;;;;;;1.88;1.20;;;;;;;;;;4958628;28;20022;-84
2021/05/20 05:17:37;;;;;;;3.60;1.33;;;;;;;;;;4957825;28;20058;-85
2021/05/20 05:20:22;;;;;;;3.22;1.38;;;;;;;;;;4944276;28;20022;-86
2021/05/20 05:23:07;;;;;;;1.50;1.20;;;;;;;;;;4955880;28;20478;-83
2021/05/20 05:25:53;;;;;;;3.38;1.05;;;;;;;;;;4961556;28;20106;-83
2021/05/20 05:28:38;;;;;;;1.35;1.10;;;;;;;;;;4959067;28;20065;-83
2021/05/20 05:31:25;;;;;;;1.05;0.90;;;;;;;;;;4960447;28;20026;-86
2021/05/20 05:34:10;;;;;;;1.58;1.10;;;;;;;;;;4960195;28;20065;-85
2021/05/20 05:36:56;;;;;;;1.98;1.20;;;;;;;;;;4965321;28;20019;-87
2021/05/20 05:39:42;;;;;;;4.78;2.20;;;;;;;;;;4952688;28;20027;-84
2021/05/20 05:42:27;;;;;;;4.13;2.72;;;;;;;;;;4961948;28;20188;-87
2021/05/20 05:45:12;;;;;;;2.33;1.40;;;;;;;;;;4959962;28;20037;-86
2021/05/20 05:47:58;;;;;;;1.15;1.05;;;;;;;;;;4955549;28;20061;-86
2021/05/20 05:50:48;;;;;;;2.28;1.40;;;;;;;;;;4950509;28;20043;-92
2021/05/20 05:53:33;;;;;;;4.03;1.30;;;;;;;;;;4956556;28;20023;-87
2021/05/20 05:56:31;;;;;;;2.05;1.27;;;;;;;;;;4942145;28;20545;-93
2021/05/20 05:59:16;;;;;;;1.88;0.98;;;;;;;;;;4963239;28;20022;-87
2021/05/20 06:02:02;;;;;;;2.65;1.20;;;;;;;;;;4933011;28;20037;-91
2021/05/20 06:04:51;;;;;;;2.95;1.10;;;;;;;;;;4961626;28;20482;-89
2021/05/20 06:07:36;;;;;;;1.87;1.20;;;;;;;;;;4953950;28;20027;-87
2021/05/20 06:10:23;;;;;;;1.70;1.20;;;;;;;;;;4958839;28;20037;-89
2021/05/20 06:13:08;;;;;;;2.42;1.60;;;;;;;;;;4966206;28;20034;-90
2021/05/20 06:15:54;;;;;;;1.52;1.15;;;;;;;;;;4955208;28;20027;-87
2021/05/20 06:18:39;;;;;;;6.35;3.78;;;;;;;;;;4957756;28;20031;-88
2021/05/20 06:21:24;;;;;;;8.40;4.30;;;;;;;;;;4963767;28;20647;-90
2021/05/20 06:24:10;;;;;;;2.78;1.23;;;;;;;;;;4954629;28;20022;-88
2021/05/20 06:26:56;;;;;;;3.78;1.40;;;;;;;;;;4960277;28;20086;-89
2021/05/20 06:29:41;;;;;;;5.22;2.15;;;;;;;;;;4956186;28;20034;-90
2021/05/20 06:32:28;;;;;;;2.25;1.70;;;;;;;;;;4965062;28;20053;-87
2021/05/20 06:35:16;;;;;;;3.38;1.10;;;;;;;;;;4963139;28;20053;-90
2021/05/20 06:38:02;;;;;;;1.98;1.30;;;;;;;;;;4957316;28;20042;-86
2021/05/20 06:40:47;;;;;;;1.08;0.90;;;;;;;;;;4961859;28;20027;-87
2021/05/20 06:43:33;;;;;;;4.05;1.30;;;;;;;;;;4958932;28;20537;-89
2021/05/20 06:53:42;;;;;;;4.90;1.50;;;;;;;;;;4819990;29;20298;-94
2021/05/20 06:56:38;;;;;;;1.52;1.08;;;;;;;;;;4836445;29;20038;-95
2021/05/20 07:03:16;;;;;;;4.00;1.48;;;;;;;;;;4819751;29;20526;-91
2021/05/20 07:06:01;;;;;;;1.48;1.35;;;;;;;;;;4819917;29;20042;-88
2021/05/20 07:19:17;;;;;;;2.47;1.30;;;;;;;;;;4902679;29;20047;-90
2021/05/20 07:29:57;;;;;;;1.30;1.20;;;;;;;;;;4890850;29;20153;-91
2021/05/20 07:32:44;;;;;;;1.85;1.25;;;;;;;;;;4869727;29;20029;-92
2021/05/20 07:36:15;;;;;;;1.50;1.20;;;;;;;;;;4843149;29;20030;-89
2021/05/20 07:43:27;;;;;;;;;;;;;;;;;;;;;
2021/05/20 07:46:12;;;;;;;2.83;1.10;;;;;;;;;;4855559;29;20029;-87
2021/05/20 07:48:58;;;;;;;1.98;1.00;;;;;;;;;;4952127;28;20037;-86
2021/05/20 07:55:15;;;;;;;2.92;1.00;;;;;;;;;;4933418;28;20090;-90
2021/05/20 07:58:01;;;;;;;3.05;1.00;;;;;;;;;;4932475;28;20019;-91
2021/05/20 08:00:54;;;;;;;4.10;2.20;;;;;;;;;;4943724;28;20031;-91
2021/05/20 08:03:47;;;;;;;6.25;4.13;;;;;;;;;;4946607;28;20015;-91
2021/05/20 08:07:05;;;;;;;2.22;1.23;;;;;;;;;;4937568;29;20030;-91
2021/05/20 08:10:11;;;;;;;2.53;1.20;;;;;;;;;;4938731;29;20031;-88
2021/05/20 08:12:56;;;;;;;1.70;1.25;;;;;;;;;;4929557;29;20023;-90
2021/05/20 08:16:11;;;;;;;2.00;1.10;;;;;;;;;;4941202;29;20023;-91
2021/05/20 08:18:59;;;;;;;1.05;1.00;;;;;;;;;;4862750;29;20056;-89
2021/05/20 08:21:45;;;;;;;2.65;1.17;;;;;;;;;;4935423;28;20031;-90
2021/05/20 08:24:30;;;;;;;1.65;0.90;;;;;;;;;;4922184;29;20027;-90
2021/05/20 08:27:19;;;;;;;2.05;1.35;;;;;;;;;;4922394;29;20023;-91
2021/05/20 08:30:07;;;;;;;0.80;0.80;;;;;;;;;;4921304;28;20052;-85
2021/05/20 08:32:52;;;;;;;4.88;1.30;;;;;;;;;;4932880;29;20023;-88
2021/05/20 08:35:37;;;;;;;1.45;0.90;;;;;;;;;;4941177;28;20024;-87
2021/05/20 08:38:23;;;;;;;2.30;1.20;;;;;;;;;;4944710;29;20031;-86
2021/05/20 08:41:09;;;;;;;2.15;1.20;;;;;;;;;;4941315;28;20030;-80
2021/05/20 08:43:56;;;;;;;1.67;1.15;;;;;;;;;;4938499;29;20033;-89
2021/05/20 08:46:41;;;;;;;0.98;0.93;;;;;;;;;;4933647;29;20027;-86
2021/05/20 08:49:26;;;;;;;0.80;0.80;;;;;;;;;;4939834;28;20099;-85
2021/05/20 08:52:13;;;;;;;2.78;1.05;;;;;;;;;;4948945;28;20391;-84
2021/05/20 08:54:59;;;;;;;3.85;1.17;;;;;;;;;;4952211;28;20058;-88
2021/05/20 08:57:45;;;;;;;3.03;1.10;;;;;;;;;;4958502;28;20380;-88
2021/05/20 09:00:31;;;;;;;5.68;3.45;;;;;;;;;;4960230;28;20034;-88
2021/05/20 09:03:16;;;;;;;3.83;2.28;;;;;;;;;;4948341;28;20027;-85
2021/05/20 09:06:05;;;;;;;1.98;0.88;;;;;;;;;;4952592;28;20027;-87
2021/05/20 09:08:50;;;;;;;1.77;0.80;;;;;;;;;;4952158;28;20114;-86
2021/05/20 09:11:45;;;;;;;1.13;0.88;;;;;;;;;;4955023;28;20464;-87
2021/05/20 09:14:35;;;;;;;1.95;1.00;;;;;;;;;;4961850;28;20033;-85
2021/05/20 09:17:21;;;;;;;1.63;0.90;;;;;;;;;;4971041;28;20037;-87
2021/05/20 09:20:06;;;;;;;1.92;0.98;;;;;;;;;;4955829;28;20030;-85
2021/05/20 09:23:11;;;;;;;1.45;1.05;;;;;;;;;;4974636;28;20026;-83
2021/05/20 09:26:04;;;;;;;0.80;0.80;;;;;;;;;;4971068;28;20014;-85
2021/05/20 09:28:49;;;;;;;1.10;0.95;;;;;;;;;;4974289;28;20037;-85
2021/05/20 09:31:36;;;;;;;2.05;1.02;;;;;;;;;;4967254;28;20414;-88
2021/05/20 09:34:22;;;;;;;3.42;1.10;;;;;;;;;;4972792;28;20646;-85
2021/05/20 09:37:08;;;;;;;1.65;1.00;;;;;;;;;;4973066;28;20030;-85
2021/05/20 09:40:03;;;;;;;2.60;0.98;;;;;;;;;;4973669;28;20077;-91
2021/05/20 09:42:49;;;;;;;3.45;1.10;;;;;;;;;;4977249;28;20037;-87
2021/05/20 09:45:34;;;;;;;3.25;0.90;;;;;;;;;;4976982;28;20033;-87
2021/05/20 09:48:21;;;;;;;1.23;0.80;;;;;;;;;;4974986;28;20533;-84
2021/05/20 09:51:07;;;;;;;1.02;0.82;;;;;;;;;;4973856;28;20069;-84
2021/05/20 09:53:53;;;;;;;2.20;0.93;;;;;;;;;;4973597;28;20106;-85
2021/05/20 09:56:40;;;;;;;0.75;0.70;;;;;;;;;;4976300;28;20022;-85
2021/05/20 09:59:33;;;;;;;1.40;1.00;;;;;;;;;;4969261;28;20027;-85
2021/05/20 10:02:18;;;;;;;5.32;3.10;;;;;;;;;;4975764;28;20432;-85
2021/05/20 10:05:19;;;;;;;3.97;2.80;;;;;;;;;;4976476;28;20037;-83
2021/05/20 10:08:05;;;;;;;1.98;1.00;;;;;;;;;;4976665;28;20041;-87
2021/05/20 10:10:54;;;;;;;1.60;1.20;;;;;;;;;;4957709;28;20049;-85
2021/05/20 10:13:40;;;;;;;1.00;0.80;;;;;;;;;;4976040;28;20022;-84
2021/05/20 10:16:29;;;;;;;2.75;1.20;;;;;;;;;;4976530;28;20029;-83
2021/05/20 10:19:14;;;;;;;1.67;0.85;;;;;;;;;;4988263;28;20594;-84
2021/05/20 10:21:59;;;;;;;2.53;1.13;;;;;;;;;;4976917;28;20561;-84
2021/05/20 10:24:44;;;;;;;2.67;1.33;;;;;;;;;;4979352;28;20085;-85
2021/05/20 10:27:30;;;;;;;1.13;0.80;;;;;;;;;;4974234;28;20480;-83
2021/05/20 10:30:19;;;;;;;0.93;0.80;;;;;;;;;;4984390;28;20508;-85
2021/05/20 10:33:05;;;;;;;4.63;1.83;;;;;;;;;;4979305;28;20039;-84
2021/05/20 10:35:54;;;;;;;1.70;0.93;;;;;;;;;;4979430;28;20033;-86
2021/05/20 10:38:39;;;;;;;1.20;1.10;;;;;;;;;;4980419;28;20041;-85
2021/05/20 10:41:27;;;;;;;3.50;0.90;;;;;;;;;;4994177;28;20061;-83
2021/05/20 10:44:12;;;;;;;2.75;1.55;;;;;;;;;;4973935;28;20018;-79
2021/05/20 10:46:57;;;;;;;5.82;1.73;;;;;;;;;;4974996;28;20797;-81
2021/05/20 10:49:46;;;;;;;1.27;1.00;;;;;;;;;;4972685;28;20104;-80
2021/05/20 10:52:34;;;;;;;1.25;1.10;;;;;;;;;;4974837;28;20023;-80
2021/05/20 10:55:20;;;;;;;1.58;0.77;;;;;;;;;;4974220;28;20030;-81
2021/05/20 10:58:06;;;;;;;1.88;1.13;;;;;;;;;;4972715;28;20064;-81
2021/05/20 11:00:51;;;;;;;2.50;1.25;;;;;;;;;;4952917;28;20354;-81
2021/05/20 11:03:55;;;;;;;4.82;1.20;;;;;;;;;;4966225;28;20038;-81
2021/05/20 11:06:44;;;;;;;1.67;1.00;;;;;;;;;;4971051;28;20027;-80
2021/05/20 11:09:42;;;;;;;0.75;0.70;;;;;;;;;;4971201;28;20030;-83
2021/05/20 11:12:53;;;;;;;5.00;0.93;;;;;;;;;;4978031;28;20125;-89
2021/05/20 11:15:41;;;;;;;1.58;0.80;;;;;;;;;;4975116;28;20066;-84
2021/05/20 11:18:30;;;;;;;2.75;1.63;;;;;;;;;;4977730;28;20500;-86
2021/05/20 11:21:15;;;;;;;1.10;0.60;;;;;;;;;;4972705;28;20034;-88
2021/05/20 11:24:16;;;;;;;2.38;1.50;;;;;;;;;;4978360;28;20034;-87
2021/05/20 11:27:09;;;;;;;2.15;0.80;;;;;;;;;;4978644;28;20538;-87
2021/05/20 11:29:54;;;;;;;1.70;0.93;;;;;;;;;;4973348;28;20034;-89
2021/05/20 11:32:49;;;;;;;3.20;0.60;;;;;;;;;;4982284;28;20030;-88
2021/05/20 11:35:53;;;;;;;0.90;0.73;;;;;;;;;;4976901;28;20026;-90
2021/05/20 11:39:20;;;;;;;1.00;0.82;;;;;;;;;;4980672;28;20038;-91
2021/05/20 11:42:06;;;;;;;0.80;0.80;;;;;;;;;;4984790;28;20030;-90
2021/05/20 11:44:52;;;;;;;2.42;0.80;;;;;;;;;;4973690;28;20023;-78
2021/05/20 11:47:37;;;;;;;0.70;0.70;;;;;;;;;;4973324;28;20075;-77
2021/05/20 11:50:25;;;;;;;4.70;1.30;;;;;;;;;;4969673;28;20038;-78
2021/05/20 11:53:11;;;;;;;1.00;0.90;;;;;;;;;;4978726;28;20100;-78
2021/05/20 11:55:56;;;;;;;2.03;1.00;;;;;;;;;;4976392;28;20034;-91
2021/05/20 11:58:45;;;;;;;0.98;0.60;;;;;;;;;;4975298;28;20121;-89
2021/05/20 12:01:31;;;;;;;3.63;1.30;;;;;;;;;;4973929;28;20030;-85
2021/05/20 12:04:18;;;;;;;2.78;1.50;;;;;;;;;;4970481;28;20038;-86
2021/05/20 12:07:04;;;;;;;0.82;0.60;;;;;;;;;;4973919;28;20080;-84
2021/05/20 12:09:50;;;;;;;1.90;1.10;;;;;;;;;;4975148;28;20113;-86
2021/05/20 12:12:36;;;;;;;0.82;0.70;;;;;;;;;;4973597;28;20030;-85
2021/05/20 12:15:22;;;;;;;1.20;0.85;;;;;;;;;;4974761;28;20019;-84
2021/05/20 12:18:10;;;;;;;1.85;1.30;;;;;;;;;;4968835;28;20061;-86
2021/05/20 12:20:55;;;;;;;5.70;2.95;;;;;;;;;;4971310;28;20073;-85
2021/05/20 12:23:51;;;;;;;1.27;0.90;;;;;;;;;;4979895;28;20087;-85
2021/05/20 12:26:40;;;;;;;4.20;1.30;;;;;;;;;;4976309;28;20100;-85
2021/05/20 12:29:25;;;;;;;1.33;0.93;;;;;;;;;;4974008;28;20026;-87
2021/05/20 12:32:22;;;;;;;1.40;0.90;;;;;;;;;;4972410;28;20425;-88
2021/05/20 12:35:09;;;;;;;2.70;0.80;;;;;;;;;;4973737;28;20031;-86
2021/05/20 12:37:59;;;;;;;2.25;0.80;;;;;;;;;;4972219;28;20030;-86
2021/05/20 12:40:50;;;;;;;1.13;0.80;;;;;;;;;;4968840;28;20030;-87
2021/05/20 12:43:38;;;;;;;1.25;0.85;;;;;;;;;;4971080;28;20018;-87
2021/05/20 12:46:24;;;;;;;1.23;0.70;;;;;;;;;;4978103;28;20034;-87
2021/05/20 12:49:18;;;;;;;2.05;0.80;;;;;;;;;;4969617;28;20027;-87
2021/05/20 12:52:03;;;;;;;1.35;0.90;;;;;;;;;;4978589;28;20042;-85
2021/05/20 12:54:48;;;;;;;1.05;0.70;;;;;;;;;;4971565;28;20038;-88
2021/05/20 12:57:53;;;;;;;1.95;0.85;;;;;;;;;;4973026;28;20033;-86
2021/05/20 13:00:53;;;;;;;0.65;0.65;;;;;;;;;;4972414;28;20105;-86
2021/05/20 13:03:40;;;;;;;0.70;0.70;;;;;;;;;;4983413;28;20037;-87
2021/05/20 13:06:26;;;;;;;0.98;0.80;;;;;;;;;;4969001;28;20505;-87
2021/05/20 13:09:12;;;;;;;0.88;0.70;;;;;;;;;;4972837;28;20110;-90
2021/05/20 13:12:04;;;;;;;3.38;0.80;;;;;;;;;;4974310;28;20041;-88
2021/05/20 13:15:01;;;;;;;2.15;1.70;;;;;;;;;;4978473;28;20103;-87
2021/05/20 13:23:28;;;;;;;2.15;0.80;;;;;;;;;;4985011;28;20080;-86
2021/05/20 13:26:14;;;;;;;2.13;1.08;;;;;;;;;;4968313;28;20026;-87
2021/05/20 13:28:59;;;;;;;1.67;0.93;;;;;;;;;;4975888;28;20404;-87
2021/05/20 13:31:45;;;;;;;3.28;1.27;;;;;;;;;;4973381;28;20027;-86
2021/05/20 13:34:31;;;;;;;2.15;1.20;;;;;;;;;;4969118;28;20231;-89
2021/05/20 13:37:16;;;;;;;1.20;1.10;;;;;;;;;;4979288;28;20537;-86
2021/05/20 13:40:05;;;;;;;7.10;4.40;;;;;;;;;;4974645;28;20516;-88
2021/05/20 13:42:51;;;;;;;3.53;1.92;;;;;;;;;;4978822;28;20057;-86
2021/05/20 13:45:36;;;;;;;3.40;1.65;;;;;;;;;;4974976;28;20199;-87
2021/05/20 13:48:24;;;;;;;2.75;1.05;;;;;;;;;;4989646;28;20042;-88
2021/05/20 13:51:13;;;;;;;3.55;0.90;;;;;;;;;;4968816;28;20049;-86
2021/05/20 13:54:04;;;;;;;2.15;0.88;;;;;;;;;;4978201;28;20026;-84
2021/05/20 13:56:49;;;;;;;0.98;0.80;;;;;;;;;;4981299;28;20465;-92
2021/05/20 13:59:35;;;;;;;7.40;1.30;;;;;;;;;;4987466;28;20053;-87
2021/05/20 14:02:24;;;;;;;0.73;0.70;;;;;;;;;;4979341;28;20026;-84
2021/05/20 14:05:09;;;;;;;2.35;1.05;;;;;;;;;;4975044;28;20030;-88
2021/05/20 14:07:55;;;;;;;4.03;1.15;;;;;;;;;;4967948;28;20027;-86
2021/05/20 14:10:41;;;;;;;6.30;3.90;;;;;;;;;;4980134;28;20023;-87
2021/05/20 14:13:26;;;;;;;5.18;1.58;;;;;;;;;;4985008;28;20026;-87
2021/05/20 14:16:11;;;;;;;1.02;0.82;;;;;;;;;;4976270;28;20563;-86
2021/05/20 14:18:57;;;;;;;1.92;0.93;;;;;;;;;;4965500;28;20686;-84
2021/05/20 14:21:42;;;;;;;1.63;0.85;;;;;;;;;;4975829;28;20528;-84
2021/05/20 14:24:28;;;;;;;0.70;0.70;;;;;;;;;;4974218;28;20117;-84
2021/05/20 14:27:18;;;;;;;1.02;0.90;;;;;;;;;;4975110;28;20026;-85
2021/05/20 14:30:03;;;;;;;2.78;0.73;;;;;;;;;;4984183;28;20612;-86
2021/05/20 14:32:48;;;;;;;0.85;0.70;;;;;;;;;;4972498;28;20030;-90
2021/05/20 14:35:34;;;;;;;0.80;0.80;;;;;;;;;;4975755;28;20473;-83
2021/05/20 14:38:19;;;;;;;2.35;0.73;;;;;;;;;;4978529;28;20034;-84
2021/05/20 14:41:04;;;;;;;0.93;0.70;;;;;;;;;;4980875;28;20037;-83
2021/05/20 14:43:49;;;;;;;1.35;1.00;;;;;;;;;;4979575;28;20032;-82
2021/05/20 14:46:35;;;;;;;2.10;0.80;;;;;;;;;;4975540;28;20022;-83
2021/05/20 14:52:45;;;;;;;1.27;0.90;;;;;;;;;;4974737;28;20022;-88
2021/05/20 14:55:45;;;;;;;0.85;0.60;;;;;;;;;;4980227;28;20089;-83
2021/05/20 15:07:43;;;;;;;1.33;0.70;;;;;;;;;;4971368;28;20061;-84
2021/05/20 15:10:37;;;;;;;2.15;0.85;;;;;;;;;;4981348;28;20042;-85
2021/05/20 15:14:11;;;;;;;1.42;0.85;;;;;;;;;;4976893;28;20032;-85
2021/05/20 15:16:35;;;;;;;0.88;0.85;;;;;;;;;;4977653;28;20084;-85
2021/05/20 15:19:20;;;;;;;2.58;0.70;;;;;;;;;;4975703;28;20026;-85
2021/05/20 15:22:05;;;;;;;1.77;1.00;;;;;;;;;;4973080;28;20073;-85
2021/05/20 15:24:51;;;;;;;0.80;0.80;;;;;;;;;;4980758;28;20116;-85
2021/05/20 15:27:37;;;;;;;1.27;0.88;;;;;;;;;;4980622;28;20161;-85
2021/05/20 15:30:22;;;;;;;1.73;1.00;;;;;;;;;;4973138;28;20088;-85
2021/05/20 15:33:07;;;;;;;6.20;0.93;;;;;;;;;;4976891;28;20086;-85
2021/05/20 15:35:58;;;;;;;1.42;0.88;;;;;;;;;;4979466;28;20076;-85
2021/05/20 15:38:43;;;;;;;2.70;0.88;;;;;;;;;;4975268;28;20014;-84
2021/05/20 15:41:29;;;;;;;1.55;0.80;;;;;;;;;;4978888;28;20085;-84
2021/05/20 15:44:16;;;;;;;1.55;0.70;;;;;;;;;;4970614;28;20030;-85
2021/05/20 15:47:04;;;;;;;0.80;0.73;;;;;;;;;;4977663;28;20172;-85
2021/05/20 15:52:55;;;;;;;1.80;0.80;;;;;;;;;;4977698;28;20022;-86
2021/05/20 15:55:41;;;;;;;1.27;0.70;;;;;;;;;;4961287;28;20028;-85
2021/05/20 15:58:26;;;;;;;0.93;0.77;;;;;;;;;;4979453;28;20030;-86
2021/05/20 16:01:11;;;;;;;2.55;0.82;;;;;;;;;;4976703;28;20037;-87
2021/05/20 16:03:56;;;;;;;2.40;1.00;;;;;;;;;;4993041;28;20018;-87
2021/05/20 16:06:46;;;;;;;1.95;0.85;;;;;;;;;;4975715;28;20027;-85
2021/05/20 16:09:44;;;;;;;1.10;0.80;;;;;;;;;;4978804;28;20609;-86
2021/05/20 16:15:19;;;;;;;3.03;1.35;;;;;;;;;;4971709;28;20045;-80
2021/05/20 16:18:04;;;;;;;1.20;1.10;;;;;;;;;;4977655;28;20017;-80
2021/05/20 16:20:51;;;;;;;1.73;1.30;;;;;;;;;;4972855;28;20046;-80
2021/05/20 16:36:45;;;;;;;2.38;1.10;;;;;;;;;;4969040;28;20026;-79
2021/05/20 16:38:59;;;;;;;2.10;1.10;;;;;;;;;;4971889;28;20030;-78
2021/05/20 16:41:44;;;;;;;2.58;0.90;;;;;;;;;;4957834;28;20061;-79
2021/05/20 16:44:29;;;;;;;2.08;1.27;;;;;;;;;;4974732;28;20062;-79
2021/05/20 16:47:15;;;;;;;1.23;1.13;;;;;;;;;;4969286;28;20390;-80
2021/05/20 16:50:00;;;;;;;1.77;0.90;;;;;;;;;;4970592;28;20511;-78
2021/05/20 16:52:46;;;;;;;2.83;0.77;;;;;;;;;;4967583;28;20034;-79
2021/05/20 16:55:42;;;;;;;0.95;0.90;;;;;;;;;;4974339;28;20026;-87
2021/05/20 16:58:48;;;;;;;4.93;1.25;;;;;;;;;;4971302;28;20435;-87
2021/05/20 17:01:38;;;;;;;1.50;0.93;;;;;;;;;;4978251;28;20381;-84
2021/05/20 17:04:24;;;;;;;1.38;1.00;;;;;;;;;;4972354;28;20045;-87
2021/05/20 17:07:09;;;;;;;1.55;1.00;;;;;;;;;;4968752;28;20466;-87
2021/05/20 17:09:55;;;;;;;1.98;1.52;;;;;;;;;;4968555;28;20110;-88
2021/05/20 17:12:42;;;;;;;2.08;1.35;;;;;;;;;;4973022;28;20465;-89
2021/05/20 17:15:27;;;;;;;1.77;1.05;;;;;;;;;;4975217;28;20082;-89
2021/05/20 17:18:12;;;;;;;3.42;1.10;;;;;;;;;;4978460;28;20040;-88
2021/05/20 17:20:58;;;;;;;2.50;1.25;;;;;;;;;;4977354;28;20022;-86
2021/05/20 17:23:44;;;;;;;2.08;1.00;;;;;;;;;;4968782;28;20026;-87
2021/05/20 17:26:32;;;;;;;1.08;0.80;;;;;;;;;;4972223;28;20065;-87
2021/05/20 17:29:17;;;;;;;4.03;1.25;;;;;;;;;;4975869;28;20018;-87
2021/05/20 17:32:05;;;;;;;2.45;0.90;;;;;;;;;;4973660;28;20026;-86
2021/05/20 17:34:56;;;;;;;2.00;1.10;;;;;;;;;;4973057;28;20533;-86
2021/05/20 17:37:44;;;;;;;3.28;1.40;;;;;;;;;;4973005;28;20026;-85
2021/05/20 17:40:32;;;;;;;2.78;1.20;;;;;;;;;;4972595;28;20030;-89
2021/05/20 17:43:27;;;;;;;2.42;1.33;;;;;;;;;;4977982;28;20022;-83
2021/05/20 17:46:12;;;;;;;1.38;0.90;;;;;;;;;;4969430;28;20038;-84
2021/05/20 17:48:57;;;;;;;2.80;0.90;;;;;;;;;;4968388;28;20034;-84
2021/05/20 17:51:43;;;;;;;2.47;1.20;;;;;;;;;;4972127;28;20038;-84
2021/05/20 17:54:28;;;;;;;2.25;0.98;;;;;;;;;;4975936;28;20437;-85
2021/05/20 17:57:13;;;;;;;1.48;1.08;;;;;;;;;;4973184;28;20144;-83